createdAt,value
2023-02-18T00:01:04.912Z,53.21
2023-02-18T00:03:33.761Z,53.25
2023-02-18T00:06:02.616Z,53.47
2023-02-18T00:08:31.450Z,53.42
2023-02-18T00:10:58.050Z,53.65
2023-02-18T00:13:26.872Z,53.56
2023-02-18T00:15:53.560Z,53.60
2023-02-18T00:18:21.518Z,53.51
2023-02-18T00:20:48.138Z,53.55
2023-02-18T00:23:16.922Z,53.76
2023-02-18T00:25:45.712Z,53.87
2023-02-18T00:28:12.314Z,54.11
2023-02-18T00:30:47.048Z,54.28
2023-02-18T00:33:13.695Z,54.34
2023-02-18T00:35:42.719Z,54.34
2023-02-18T00:38:11.495Z,54.33
2023-02-18T00:40:41.925Z,54.16
2023-02-18T00:43:11.683Z,54.12
2023-02-18T00:45:40.661Z,54.19
2023-02-18T00:48:07.357Z,53.76
2023-02-18T00:50:33.965Z,53.95
2023-02-18T00:53:00.632Z,54.05
2023-02-18T00:55:29.580Z,54.13
2023-02-18T00:57:56.290Z,54.19
2023-02-18T01:00:25.581Z,54.31
2023-02-18T01:02:55.265Z,54.54
2023-02-18T01:05:24.101Z,54.55
2023-02-18T01:07:50.708Z,54.54
2023-02-18T01:10:20.628Z,54.38
2023-02-18T01:12:47.237Z,54.37
2023-02-18T01:15:17.532Z,54.22
2023-02-18T01:17:44.307Z,54.28
2023-02-18T01:20:11.528Z,54.32
2023-02-18T01:22:38.455Z,54.39
2023-02-18T01:25:07.749Z,54.27
2023-02-18T01:27:36.876Z,54.30
2023-02-18T01:30:07.417Z,54.28
2023-02-18T01:32:34.115Z,54.43
2023-02-18T01:35:04.968Z,54.62
2023-02-18T01:37:31.656Z,54.63
2023-02-18T01:39:58.297Z,54.80
2023-02-18T01:42:29.043Z,54.92
2023-02-18T01:45:16.457Z,54.90
2023-02-18T01:47:43.190Z,55.13
2023-02-18T01:50:09.924Z,55.21
2023-02-18T01:52:38.830Z,55.36
2023-02-18T01:55:08.699Z,55.60
2023-02-18T01:57:40.600Z,55.54
2023-02-18T02:00:12.237Z,55.81
2023-02-18T02:02:40.996Z,55.79
2023-02-18T02:05:10.286Z,55.77
2023-02-18T02:07:39.056Z,55.77
2023-02-18T02:10:15.417Z,55.83
2023-02-18T02:12:45.174Z,56.10
2023-02-18T02:15:32.668Z,56.07
2023-02-18T02:18:32.670Z,55.87
2023-02-18T02:21:28.977Z,56.16
2023-02-18T02:24:26.630Z,56.12
2023-02-18T02:26:59.665Z,56.07
2023-02-18T02:29:41.464Z,56.25
2023-02-18T02:32:26.231Z,56.36
2023-02-18T02:35:16.617Z,56.29
2023-02-18T02:38:00.046Z,56.47
2023-02-18T02:40:52.239Z,56.41
2023-02-18T02:43:48.285Z,56.29
2023-02-18T02:46:39.866Z,56.30
2023-02-18T02:49:33.246Z,56.22
2023-02-18T02:52:13.331Z,56.35
2023-02-18T02:54:40.333Z,56.28
2023-02-18T02:57:30.575Z,56.20
2023-02-18T03:00:03.562Z,56.27
2023-02-18T03:02:48.543Z,56.10
2023-02-18T03:05:36.429Z,56.13
2023-02-18T03:08:05.360Z,56.18
2023-02-18T03:10:50.069Z,56.28
2023-02-18T03:13:33.858Z,56.26
2023-02-18T03:16:09.413Z,56.27
2023-02-18T03:18:41.553Z,56.24
2023-02-18T03:21:16.603Z,56.40
2023-02-18T03:24:00.155Z,56.25
2023-02-18T03:26:26.867Z,56.28
2023-02-18T03:28:53.708Z,56.26
2023-02-18T03:31:24.322Z,56.24
2023-02-18T03:33:56.894Z,56.09
2023-02-18T03:36:25.671Z,56.18
2023-02-18T03:39:17.114Z,56.05
2023-02-18T03:41:43.654Z,55.99
2023-02-18T03:44:21.117Z,56.04
2023-02-18T03:46:47.851Z,55.88
2023-02-18T03:49:14.938Z,56.14
2023-02-18T03:51:42.050Z,55.88
2023-02-18T03:54:09.067Z,56.03
2023-02-18T03:56:38.373Z,56.01
2023-02-18T03:59:07.156Z,55.90
2023-02-18T04:01:36.044Z,55.72
2023-02-18T04:04:05.175Z,55.82
2023-02-18T04:06:31.792Z,55.55
2023-02-18T04:09:00.678Z,55.62
2023-02-18T04:11:29.722Z,55.49
2023-02-18T04:13:58.560Z,56.00
2023-02-18T04:16:27.381Z,55.87
2023-02-18T04:18:56.290Z,56.08
2023-02-18T04:21:22.978Z,56.09
2023-02-18T04:23:49.688Z,55.90
2023-02-18T04:26:21.566Z,56.06
2023-02-18T04:28:48.332Z,56.09
2023-02-18T04:31:17.359Z,55.75
2023-02-18T04:33:44.081Z,55.98
2023-02-18T04:36:13.008Z,55.87
2023-02-18T04:38:39.615Z,55.70
2023-02-18T04:41:08.405Z,55.69
2023-02-18T04:43:37.200Z,55.68
2023-02-18T04:46:06.328Z,55.63
2023-02-18T04:48:35.389Z,55.50
2023-02-18T04:51:02.488Z,55.66
2023-02-18T04:53:29.120Z,55.52
2023-02-18T04:55:55.759Z,55.68
2023-02-18T04:58:24.741Z,55.64
2023-02-18T05:00:54.292Z,55.74
2023-02-18T05:03:20.957Z,55.60
2023-02-18T05:05:47.674Z,55.45
2023-02-18T05:08:16.358Z,55.58
2023-02-18T05:10:43.157Z,55.46
2023-02-18T05:13:09.816Z,55.70
2023-02-18T05:15:36.927Z,55.58
2023-02-18T05:18:08.827Z,55.48
2023-02-18T05:20:35.554Z,55.92
2023-02-18T05:23:04.892Z,55.77
2023-02-18T05:25:31.600Z,55.96
2023-02-18T05:28:00.542Z,55.96
2023-02-18T05:30:27.217Z,56.13
2023-02-18T05:32:56.179Z,56.10
2023-02-18T05:35:24.989Z,56.14
2023-02-18T05:37:51.654Z,56.14
2023-02-18T05:40:18.341Z,56.28
2023-02-18T05:42:47.242Z,56.35
2023-02-18T05:45:16.327Z,56.31
2023-02-18T05:47:42.996Z,56.31
2023-02-18T05:50:12.826Z,56.54
2023-02-18T05:52:39.513Z,56.21
2023-02-18T05:55:06.615Z,56.42
2023-02-18T05:57:38.092Z,56.52
2023-02-18T06:00:06.441Z,56.47
2023-02-18T06:02:35.427Z,56.54
2023-02-18T06:05:04.263Z,56.64
2023-02-18T06:07:30.896Z,56.62
2023-02-18T06:09:57.607Z,56.82
2023-02-18T06:12:26.403Z,56.64
2023-02-18T06:14:55.397Z,56.59
2023-02-18T06:17:24.760Z,56.48
2023-02-18T06:19:51.382Z,56.44
2023-02-18T06:22:22.789Z,56.59
2023-02-18T06:24:49.427Z,56.52
2023-02-18T06:27:16.212Z,56.35
2023-02-18T06:29:42.953Z,56.40
2023-02-18T06:32:09.742Z,56.41
2023-02-18T06:34:38.792Z,56.47
2023-02-18T06:37:05.442Z,56.55
2023-02-18T06:39:32.161Z,34.42
2023-02-18T06:42:03.587Z,36.19
2023-02-18T06:44:33.145Z,33.34
2023-02-18T06:47:02.809Z,33.19
2023-02-18T06:49:36.478Z,33.02
2023-02-18T06:52:05.457Z,32.94
2023-02-18T06:54:37.352Z,33.40
2023-02-18T06:57:08.722Z,33.85
2023-02-18T06:59:37.644Z,33.65
2023-02-18T07:02:04.239Z,37.37
2023-02-18T07:04:33.334Z,37.32
2023-02-18T07:07:02.347Z,38.70
2023-02-18T07:09:31.373Z,39.48
2023-02-18T07:12:00.398Z,39.66
2023-02-18T07:14:29.888Z,40.48
2023-02-18T07:16:56.586Z,40.81
2023-02-18T07:19:23.274Z,41.47
2023-02-18T07:21:54.430Z,41.87
2023-02-18T07:24:24.164Z,42.59
2023-02-18T07:26:56.245Z,43.25
2023-02-18T07:29:22.940Z,43.64
2023-02-18T07:31:54.465Z,44.39
2023-02-18T07:34:24.363Z,44.48
2023-02-18T07:36:50.983Z,44.54
2023-02-18T07:39:20.767Z,44.43
2023-02-18T07:41:48.067Z,44.92
2023-02-18T07:44:16.982Z,45.03
2023-02-18T07:46:47.464Z,39.15
2023-02-18T07:49:15.235Z,36.38
2023-02-18T07:51:44.092Z,39.62
2023-02-18T07:54:10.739Z,42.80
2023-02-18T07:56:37.399Z,43.41
2023-02-18T07:59:06.220Z,43.01
2023-02-18T08:01:35.303Z,42.86
2023-02-18T08:04:04.242Z,42.78
2023-02-18T08:06:43.745Z,43.25
2023-02-18T08:09:12.580Z,43.57
2023-02-18T08:11:41.977Z,44.79
2023-02-18T08:14:11.356Z,43.92
2023-02-18T08:16:38.091Z,44.16
2023-02-18T08:19:08.049Z,44.11
2023-02-18T08:21:34.877Z,43.65
2023-02-18T08:24:03.920Z,43.71
2023-02-18T08:26:32.809Z,43.58
2023-02-18T08:28:59.487Z,43.94
2023-02-18T08:31:28.281Z,43.69
2023-02-18T08:33:57.945Z,43.57
2023-02-18T08:36:27.307Z,43.77
2023-02-18T08:38:54.068Z,43.55
2023-02-18T08:41:20.843Z,43.31
2023-02-18T08:43:50.272Z,43.40
2023-02-18T08:46:33.249Z,43.29
2023-02-18T08:49:01.960Z,43.46
2023-02-18T08:51:31.739Z,43.33
2023-02-18T08:53:58.611Z,43.22
2023-02-18T08:56:29.947Z,43.27
2023-02-18T08:58:58.832Z,43.25
2023-02-18T09:01:25.489Z,43.17
2023-02-18T09:03:55.417Z,43.18
2023-02-18T09:06:24.873Z,43.32
2023-02-18T09:08:53.788Z,43.50
2023-02-18T09:11:22.741Z,43.68
2023-02-18T09:13:49.426Z,43.87
2023-02-18T09:16:20.752Z,44.02
2023-02-18T09:18:47.576Z,44.29
2023-02-18T09:21:20.838Z,44.41
2023-02-18T09:23:47.579Z,44.63
2023-02-18T09:26:15.030Z,44.49
2023-02-18T09:28:41.781Z,44.43
2023-02-18T09:31:10.396Z,44.69
2023-02-18T09:33:40.048Z,44.46
2023-02-18T09:36:07.032Z,44.24
2023-02-18T09:38:33.968Z,44.58
2023-02-18T09:41:01.320Z,44.59
2023-02-18T09:43:39.028Z,44.64
2023-02-18T09:46:20.807Z,44.47
2023-02-18T09:48:52.282Z,44.74
2023-02-18T09:51:21.746Z,44.86
2023-02-18T09:53:48.411Z,44.77
2023-02-18T09:56:21.351Z,44.74
2023-02-18T09:58:48.037Z,45.17
2023-02-18T10:01:52.280Z,45.05
2023-02-18T10:04:40.452Z,45.07
2023-02-18T10:07:09.271Z,45.31
2023-02-18T10:09:41.924Z,44.87
2023-02-18T10:12:17.456Z,45.06
2023-02-18T10:14:45.825Z,44.97
2023-02-18T10:17:14.150Z,44.78
2023-02-18T10:19:43.579Z,44.80
2023-02-18T10:22:15.178Z,44.73
2023-02-18T10:24:56.960Z,44.67
2023-02-18T10:27:33.910Z,44.62
2023-02-18T10:30:21.550Z,44.47
2023-02-18T10:32:48.629Z,44.42
2023-02-18T10:35:25.338Z,44.51
2023-02-18T10:37:55.023Z,44.63
2023-02-18T10:40:24.686Z,44.51
2023-02-18T10:42:57.982Z,44.46
2023-02-18T10:45:43.577Z,44.23
2023-02-18T10:48:50.193Z,44.07
2023-02-18T10:51:27.273Z,44.06
2023-02-18T10:53:54.198Z,43.88
2023-02-18T10:56:32.980Z,43.96
2023-02-18T10:59:26.058Z,43.97
2023-02-18T11:01:57.547Z,43.83
2023-02-18T11:04:35.817Z,43.94
2023-02-18T11:07:16.012Z,43.89
2023-02-18T11:09:56.179Z,44.05
2023-02-18T11:12:25.821Z,44.08
2023-02-18T11:15:16.328Z,43.77
2023-02-18T11:17:46.997Z,43.82
2023-02-18T11:20:37.983Z,43.78
2023-02-18T11:23:07.660Z,43.96
2023-02-18T11:25:35.490Z,43.91
2023-02-18T11:28:17.476Z,44.02
2023-02-18T11:30:48.763Z,44.09
2023-02-18T11:33:22.682Z,43.97
2023-02-18T11:35:53.202Z,44.00
2023-02-18T11:38:26.750Z,43.98
2023-02-18T11:41:00.291Z,43.94
2023-02-18T11:43:29.478Z,44.09
2023-02-18T11:46:15.991Z,44.21
2023-02-18T11:48:42.713Z,44.20
2023-02-18T11:51:38.150Z,44.18
2023-02-18T11:54:22.145Z,44.08
2023-02-18T11:56:58.860Z,43.99
2023-02-18T11:59:25.542Z,44.17
2023-02-18T12:01:59.823Z,44.03
2023-02-18T12:04:34.098Z,44.28
2023-02-18T12:07:17.795Z,44.13
2023-02-18T12:09:47.537Z,44.33
2023-02-18T12:12:24.246Z,44.28
2023-02-18T12:14:53.077Z,44.25
2023-02-18T12:17:47.692Z,44.25
2023-02-18T12:20:48.190Z,44.49
2023-02-18T12:23:29.990Z,44.36
2023-02-18T12:26:12.282Z,44.51
2023-02-18T12:29:03.320Z,44.62
2023-02-18T12:31:48.139Z,44.46
2023-02-18T12:34:29.919Z,44.40
2023-02-18T12:37:21.009Z,44.49
2023-02-18T12:40:17.210Z,44.46
2023-02-18T12:43:16.302Z,44.55
2023-02-18T12:46:14.530Z,44.68
2023-02-18T12:49:00.301Z,44.69
2023-02-18T12:51:36.368Z,44.58
2023-02-18T12:54:21.757Z,44.64
2023-02-18T12:56:59.913Z,44.71
2023-02-18T12:59:45.323Z,44.76
2023-02-18T13:02:17.810Z,44.64
2023-02-18T13:05:05.949Z,44.74
2023-02-18T13:07:57.352Z,44.63
2023-02-18T13:10:30.098Z,44.62
2023-02-18T13:13:20.127Z,44.85
2023-02-18T13:15:51.960Z,44.78
2023-02-18T13:18:33.986Z,44.78
2023-02-18T13:21:05.904Z,44.75
2023-02-18T13:23:38.714Z,44.68
2023-02-18T13:26:09.336Z,44.85
2023-02-18T13:28:45.297Z,44.81
2023-02-18T13:31:28.470Z,44.81
2023-02-18T13:34:00.982Z,44.75
2023-02-18T13:36:36.597Z,44.75
2023-02-18T13:39:10.085Z,44.88
2023-02-18T13:41:41.369Z,44.54
2023-02-18T13:44:09.140Z,44.95
2023-02-18T13:46:50.947Z,44.77
2023-02-18T13:49:48.989Z,44.67
2023-02-18T13:52:20.819Z,44.58
2023-02-18T13:54:47.496Z,44.90
2023-02-18T13:57:15.082Z,44.91
2023-02-18T13:59:47.502Z,44.74
2023-02-18T14:02:20.486Z,44.72
2023-02-18T14:04:47.393Z,44.80
2023-02-18T14:07:35.997Z,44.77
2023-02-18T14:10:17.206Z,44.87
2023-02-18T14:12:51.897Z,44.77
2023-02-18T14:15:18.546Z,44.84
2023-02-18T14:18:14.439Z,44.89
2023-02-18T14:20:41.027Z,44.59
2023-02-18T14:23:20.126Z,44.86
2023-02-18T14:25:57.737Z,44.83
2023-02-18T14:28:35.201Z,44.74
2023-02-18T14:31:37.530Z,44.95
2023-02-18T14:34:21.928Z,44.89
2023-02-18T14:37:15.073Z,44.86
2023-02-18T14:40:03.086Z,44.94
2023-02-18T14:42:38.627Z,44.88
2023-02-18T14:45:12.135Z,44.93
2023-02-18T14:47:44.799Z,44.57
2023-02-18T14:50:13.412Z,44.84
2023-02-18T14:52:45.052Z,44.65
2023-02-18T14:55:26.444Z,44.82
2023-02-18T14:57:54.432Z,44.63
2023-02-18T15:00:25.243Z,44.64
2023-02-18T15:02:53.805Z,44.84
2023-02-18T15:05:21.693Z,44.76
2023-02-18T15:08:01.083Z,44.73
2023-02-18T15:10:39.542Z,44.55
2023-02-18T15:13:09.402Z,44.78
2023-02-18T15:15:38.693Z,44.68
2023-02-18T15:18:07.589Z,44.68
2023-02-18T15:20:37.086Z,44.54
2023-02-18T15:23:05.922Z,44.52
2023-02-18T15:25:34.868Z,44.44
2023-02-18T15:28:01.526Z,44.49
2023-02-18T15:30:29.820Z,44.27
2023-02-18T15:33:01.006Z,44.33
2023-02-18T15:35:31.509Z,44.38
2023-02-18T15:38:01.476Z,44.21
2023-02-18T15:40:31.265Z,44.42
2023-02-18T15:42:59.544Z,44.37
2023-02-18T15:45:31.757Z,44.49
2023-02-18T15:47:58.508Z,44.63
2023-02-18T15:50:33.034Z,44.68
2023-02-18T15:53:04.525Z,44.75
2023-02-18T15:55:38.707Z,44.65
2023-02-18T15:58:16.283Z,44.52
2023-02-18T16:00:56.796Z,44.57
2023-02-18T16:03:39.595Z,44.64
2023-02-18T16:06:09.609Z,44.62
2023-02-18T16:08:40.945Z,44.59
2023-02-18T16:11:12.170Z,44.48
2023-02-18T16:13:44.530Z,44.74
2023-02-18T16:16:33.796Z,44.96
2023-02-18T16:19:01.047Z,44.95
2023-02-18T16:21:38.901Z,45.26
2023-02-18T16:24:28.312Z,45.01
2023-02-18T16:26:57.785Z,44.95
2023-02-18T16:29:32.786Z,44.91
2023-02-18T16:31:59.470Z,44.60
2023-02-18T16:34:28.378Z,44.72
2023-02-18T16:37:13.486Z,44.68
2023-02-18T16:39:42.905Z,44.67
2023-02-18T16:42:13.301Z,44.75
2023-02-18T16:44:42.442Z,45.00
2023-02-18T16:47:11.690Z,44.91
2023-02-18T16:49:38.422Z,45.02
2023-02-18T16:52:08.048Z,45.11
2023-02-18T16:54:36.849Z,44.95
2023-02-18T16:57:05.712Z,44.83
2023-02-18T16:59:34.533Z,44.83
2023-02-18T17:02:03.329Z,44.41
2023-02-18T17:04:30.207Z,44.32
2023-02-18T17:06:57.049Z,43.83
2023-02-18T17:09:27.045Z,41.47
2023-02-18T17:11:54.408Z,37.95
2023-02-18T17:14:22.675Z,36.10
2023-02-18T17:16:52.600Z,34.07
2023-02-18T17:19:19.502Z,34.30
2023-02-18T17:21:49.154Z,36.13
2023-02-18T17:24:17.170Z,36.64
2023-02-18T17:26:43.857Z,36.49
2023-02-18T17:29:10.631Z,36.25
2023-02-18T17:31:44.400Z,36.29
2023-02-18T17:34:22.834Z,36.25
2023-02-18T17:36:49.485Z,36.50
2023-02-18T17:39:19.530Z,36.50
2023-02-18T17:41:51.549Z,36.70
2023-02-18T17:44:20.144Z,37.13
2023-02-18T17:46:46.970Z,37.20
2023-02-18T17:49:13.624Z,37.28
2023-02-18T17:51:42.726Z,37.44
2023-02-18T17:54:16.484Z,37.73
2023-02-18T17:56:45.253Z,37.73
2023-02-18T17:59:14.128Z,38.01
2023-02-18T18:01:43.416Z,38.29
2023-02-18T18:04:17.236Z,38.18
2023-02-18T18:06:44.244Z,38.45
2023-02-18T18:09:10.873Z,38.65
2023-02-18T18:11:37.581Z,38.65
2023-02-18T18:14:04.298Z,38.81
2023-02-18T18:16:33.073Z,39.00
2023-02-18T18:18:59.749Z,38.97
2023-02-18T18:21:35.451Z,39.17
2023-02-18T18:24:05.408Z,39.31
2023-02-18T18:26:36.744Z,39.31
2023-02-18T18:29:05.803Z,39.39
2023-02-18T18:31:32.673Z,39.66
2023-02-18T18:34:01.575Z,39.75
2023-02-18T18:36:28.438Z,39.65
2023-02-18T18:38:57.253Z,39.90
2023-02-18T18:41:26.235Z,39.90
2023-02-18T18:43:57.944Z,39.87
2023-02-18T18:46:26.904Z,39.76
2023-02-18T18:48:55.825Z,39.78
2023-02-18T18:51:27.396Z,39.74
2023-02-18T18:53:54.194Z,39.89
2023-02-18T18:56:21.986Z,40.68
2023-02-18T18:58:49.622Z,41.80
2023-02-18T19:01:20.863Z,43.12
2023-02-18T19:03:49.685Z,44.10
2023-02-18T19:06:18.881Z,44.46
2023-02-18T19:08:47.873Z,44.74
2023-02-18T19:11:14.727Z,44.84
2023-02-18T19:13:41.697Z,44.63
2023-02-18T19:16:16.838Z,44.69
2023-02-18T19:18:46.016Z,44.60
2023-02-18T19:21:12.722Z,44.71
2023-02-18T19:23:41.628Z,44.61
2023-02-18T19:26:13.664Z,44.62
2023-02-18T19:28:42.523Z,44.90
2023-02-18T19:31:12.320Z,44.84
2023-02-18T19:33:39.444Z,44.83
2023-02-18T19:36:10.178Z,44.83
2023-02-18T19:38:36.971Z,44.67
2023-02-18T19:41:12.490Z,44.55
2023-02-18T19:43:40.065Z,44.79
2023-02-18T19:46:14.844Z,44.77
2023-02-18T19:48:41.676Z,44.43
2023-02-18T19:51:10.979Z,44.65
2023-02-18T19:53:40.291Z,44.37
2023-02-18T19:56:07.928Z,44.45
2023-02-18T19:58:40.034Z,44.42
2023-02-18T20:01:19.125Z,44.57
2023-02-18T20:03:47.918Z,44.41
2023-02-18T20:06:16.275Z,44.20
2023-02-18T20:08:43.228Z,44.26
2023-02-18T20:11:12.247Z,44.15
2023-02-18T20:13:43.689Z,44.33
2023-02-18T20:16:13.159Z,44.14
2023-02-18T20:18:44.565Z,44.36
2023-02-18T20:21:12.128Z,44.26
2023-02-18T20:23:39.236Z,44.15
2023-02-18T20:26:11.578Z,44.11
2023-02-18T20:28:38.382Z,44.25
2023-02-18T20:31:10.164Z,44.13
2023-02-18T20:33:37.757Z,44.23
2023-02-18T20:36:07.496Z,43.96
2023-02-18T20:38:35.593Z,44.07
2023-02-18T20:41:14.034Z,44.14
2023-02-18T20:43:43.978Z,44.01
2023-02-18T20:46:19.008Z,44.02
2023-02-18T20:48:46.014Z,43.87
2023-02-18T20:51:14.401Z,43.88
2023-02-18T20:53:41.938Z,44.26
2023-02-18T20:56:08.754Z,45.20
2023-02-18T20:58:38.564Z,46.42
2023-02-18T21:01:12.138Z,47.65
2023-02-18T21:03:39.098Z,47.57
2023-02-18T21:06:14.024Z,48.76
2023-02-18T21:08:40.913Z,49.43
2023-02-18T21:11:11.973Z,49.57
2023-02-18T21:13:40.959Z,50.83
2023-02-18T21:16:12.254Z,51.58
2023-02-18T21:18:41.242Z,51.63
2023-02-18T21:21:08.798Z,51.84
2023-02-18T21:23:35.715Z,52.06
2023-02-18T21:26:13.360Z,51.94
2023-02-18T21:28:42.673Z,51.55
2023-02-18T21:31:19.944Z,51.16
2023-02-18T21:33:46.756Z,51.70
2023-02-18T21:36:15.890Z,52.28
2023-02-18T21:38:46.621Z,52.87
2023-02-18T21:41:15.628Z,53.37
2023-02-18T21:43:45.929Z,53.29
2023-02-18T21:46:16.708Z,53.39
2023-02-18T21:49:01.821Z,53.73
2023-02-18T21:51:54.081Z,53.48
2023-02-18T21:54:32.155Z,53.63
2023-02-18T21:56:59.351Z,53.60
2023-02-18T21:59:30.354Z,53.63
2023-02-18T22:01:59.756Z,53.66
2023-02-18T22:04:27.232Z,53.51
2023-02-18T22:06:53.931Z,53.56
2023-02-18T22:09:20.586Z,53.60
2023-02-18T22:11:49.486Z,53.49
2023-02-18T22:14:17.073Z,53.17
2023-02-18T22:16:48.447Z,52.96
2023-02-18T22:19:17.464Z,52.97
2023-02-18T22:21:44.330Z,53.11
2023-02-18T22:24:12.603Z,52.84
2023-02-18T22:26:39.479Z,52.87
2023-02-18T22:29:08.492Z,52.73
2023-02-18T22:31:35.232Z,52.71
2023-02-18T22:34:01.867Z,52.64
2023-02-18T22:36:31.396Z,52.58
2023-02-18T22:39:01.826Z,52.68
2023-02-18T22:41:29.578Z,52.51
2023-02-18T22:43:59.956Z,52.26
2023-02-18T22:46:29.339Z,52.28
2023-02-18T22:48:58.514Z,52.42
2023-02-18T22:51:29.882Z,52.31
2023-02-18T22:53:57.241Z,52.16
2023-02-18T22:56:27.595Z,52.18
2023-02-18T22:58:56.973Z,52.20
2023-02-18T23:01:28.769Z,51.99
2023-02-18T23:03:56.555Z,52.40
2023-02-18T23:06:23.249Z,52.23
2023-02-18T23:08:53.440Z,52.05
2023-02-18T23:11:20.248Z,52.10
2023-02-18T23:14:07.391Z,52.07
2023-02-18T23:16:54.305Z,51.93
2023-02-18T23:19:21.118Z,51.88
2023-02-18T23:21:47.966Z,51.74
2023-02-18T23:24:16.977Z,51.94
2023-02-18T23:26:43.782Z,52.15
2023-02-18T23:29:10.513Z,51.87
2023-02-18T23:31:37.990Z,51.84
2023-02-18T23:34:05.687Z,51.66
2023-02-18T23:36:35.963Z,51.59
2023-02-18T23:39:04.956Z,51.70
2023-02-18T23:41:31.869Z,51.38
2023-02-18T23:43:58.476Z,51.65
2023-02-18T23:46:28.559Z,51.51
2023-02-18T23:48:57.370Z,51.41
2023-02-18T23:51:27.010Z,51.41
2023-02-18T23:53:53.697Z,51.45
2023-02-18T23:56:29.554Z,51.48
2023-02-18T23:59:00.520Z,51.29
